Time;durP1;ratioP1;P1;durP2;ratioP2;P2;SDS_P1;SDS_P2;PMS_P1;PMS_P2;Temp;Humidity;BMP_temperature;BMP_pressure;BME280_temperature;BME280_humidity;BME280_pressure;Samples;Min_cycle;Max_cycle;Signal;HPM_P1;HPM_P2
2023/06/18 00:00:24;;;;;;;0.50;0.50;;;;;;;18.16;100.00;98834.69;5069473;28;20201;-67
2023/06/18 00:02:51;;;;;;;0.60;0.60;;;;;;;18.12;100.00;98834.13;5070506;28;20212;-68
2023/06/18 00:05:17;;;;;;;0.60;0.60;;;;;;;18.18;100.00;98838.03;5069625;28;20209;-67
2023/06/18 00:07:44;;;;;;;0.40;0.40;;;;;;;18.09;100.00;98823.97;5070607;28;20192;-67
2023/06/18 00:10:12;;;;;;;0.40;0.40;;;;;;;18.19;100.00;98839.72;5072017;28;20204;-67
2023/06/18 00:12:39;;;;;;;0.60;0.60;;;;;;;18.17;100.00;98831.19;5072154;28;20202;-67
2023/06/18 00:15:07;;;;;;;0.50;0.50;;;;;;;18.10;100.00;98819.56;5072046;28;20196;-68
2023/06/18 00:17:34;;;;;;;0.50;0.50;;;;;;;18.21;100.00;98843.00;5071812;28;20722;-68
2023/06/18 00:20:00;;;;;;;0.40;0.40;;;;;;;18.22;100.00;98839.50;5070886;28;20200;-67
2023/06/18 00:22:28;;;;;;;0.47;0.47;;;;;;;18.23;100.00;98833.34;5071755;28;20188;-67
2023/06/18 00:24:55;;;;;;;0.50;0.50;;;;;;;18.25;100.00;98839.28;5071764;28;20194;-67
2023/06/18 00:27:23;;;;;;;0.43;0.43;;;;;;;18.13;100.00;98814.16;5071733;28;20663;-67
2023/06/18 00:29:50;;;;;;;0.40;0.40;;;;;;;18.21;100.00;98832.63;5071878;28;20207;-68
2023/06/18 00:32:17;;;;;;;0.60;0.60;;;;;;;18.21;100.00;98833.47;5070710;28;20208;-67
2023/06/18 00:34:46;;;;;;;0.60;0.60;;;;;;;18.18;100.00;98838.03;5071289;28;20196;-67
2023/06/18 00:37:13;;;;;;;0.40;0.40;;;;;;;18.20;100.00;98830.97;5071230;28;20313;-68
2023/06/18 00:39:40;;;;;;;0.53;0.53;;;;;;;18.19;100.00;98839.72;5071952;28;20207;-68
2023/06/18 00:42:10;;;;;;;0.43;0.43;;;;;;;18.20;100.00;98841.34;5071228;28;20227;-67
2023/06/18 00:44:40;;;;;;;0.70;0.70;;;;;;;18.18;100.00;98838.03;5071795;28;20196;-68
2023/06/18 00:47:08;;;;;;;0.40;0.40;;;;;;;17.99;100.00;98811.72;5070802;28;20287;-68
2023/06/18 00:49:35;;;;;;;0.57;0.57;;;;;;;18.14;100.00;98834.00;5071786;28;20572;-68
2023/06/18 00:52:03;;;;;;;0.50;0.50;;;;;;;18.16;100.00;98830.34;5071516;28;20202;-67
2023/06/18 00:54:34;;;;;;;0.53;0.53;;;;;;;18.19;100.00;98834.53;5070795;28;20203;-67
2023/06/18 00:57:03;;;;;;;0.40;0.40;;;;;;;18.17;100.00;98833.78;5069749;28;20219;-68
2023/06/18 00:59:32;;;;;;;0.60;0.60;;;;;;;18.17;100.00;98837.22;5071047;28;20196;-68
2023/06/18 01:02:01;;;;;;;1.03;0.70;;;;;;;18.17;100.00;98828.59;5071246;28;20207;-67
2023/06/18 01:04:32;;;;;;;0.50;0.50;;;;;;;18.16;100.00;98834.69;5071196;28;20212;-67
2023/06/18 01:07:01;;;;;;;0.50;0.50;;;;;;;18.16;100.00;98834.69;5071189;28;20192;-68
2023/06/18 01:09:29;;;;;;;0.57;0.57;;;;;;;18.12;100.00;98838.47;5070780;28;20222;-68
2023/06/18 01:11:57;;;;;;;0.43;0.43;;;;;;;18.12;100.00;98839.31;5070979;28;20204;-67
2023/06/18 01:14:27;;;;;;;0.50;0.50;;;;;;;18.14;100.00;98841.78;5070472;28;20232;-67
2023/06/18 01:16:56;;;;;;;0.50;0.50;;;;;;;18.12;100.00;98843.66;5070614;28;20212;-67
2023/06/18 01:19:43;;;;;;;0.40;0.40;;;;;;;18.11;100.00;98842.00;5069538;28;20196;-68
2023/06/18 01:22:24;;;;;;;0.40;0.40;;;;;;;18.12;100.00;98834.13;5068022;28;20644;-67
2023/06/18 01:24:52;;;;;;;0.30;0.30;;;;;;;18.13;100.00;98834.91;5071093;28;20663;-67
2023/06/18 01:27:21;;;;;;;0.50;0.50;;;;;;;18.11;100.00;98839.41;5070139;28;20662;-67
2023/06/18 01:29:49;;;;;;;0.50;0.50;;;;;;;18.05;100.00;98829.44;5070773;28;20219;-67
2023/06/18 01:32:16;;;;;;;0.50;0.50;;;;;;;18.15;100.00;98843.44;5070409;28;20208;-67
2023/06/18 01:34:45;;;;;;;0.50;0.50;;;;;;;18.14;100.00;98844.38;5070555;28;20211;-67
2023/06/18 01:37:26;;;;;;;0.60;0.60;;;;;;;18.14;100.00;98845.22;5069819;28;20217;-67
2023/06/18 01:40:03;;;;;;;0.70;0.70;;;;;;;18.17;100.00;98857.13;5070360;28;20196;-67
2023/06/18 01:42:36;;;;;;;0.60;0.60;;;;;;;18.19;100.00;98853.47;5070358;28;20725;-67
2023/06/18 01:45:08;;;;;;;0.60;0.60;;;;;;;18.18;100.00;98851.84;5069207;28;20286;-67
2023/06/18 01:47:35;;;;;;;0.53;0.53;;;;;;;18.23;100.00;98851.50;5068943;28;20215;-67
2023/06/18 01:50:06;;;;;;;0.40;0.40;;;;;;;18.17;100.00;98844.16;5070038;28;20664;-68
2023/06/18 01:52:38;;;;;;;0.60;0.60;;;;;;;18.12;100.00;98839.31;5068910;28;20196;-67
2023/06/18 01:55:06;;;;;;;1.03;1.03;;;;;;;18.19;100.00;98861.25;5070318;28;20255;-68
2023/06/18 01:57:33;;;;;;;0.60;0.60;;;;;;;18.20;100.00;98867.28;5069495;28;20213;-68
2023/06/18 02:00:00;;;;;;;0.30;0.30;;;;;;;18.22;100.00;98868.03;5070381;28;20200;-68
2023/06/18 02:02:26;;;;;;;0.50;0.50;;;;;;;18.25;100.00;98875.59;5069670;28;20632;-67
2023/06/18 02:04:53;;;;;;;0.50;0.50;;;;;;;18.28;100.00;98875.38;5069364;28;20266;-67
2023/06/18 02:07:21;;;;;;;0.40;0.40;;;;;;;18.26;100.00;98877.25;5069539;28;20194;-67
2023/06/18 02:09:48;;;;;;;0.40;0.40;;;;;;;18.25;100.00;98884.22;5069447;28;20691;-67
2023/06/18 02:12:15;;;;;;;0.53;0.53;;;;;;;18.21;100.00;98876.75;5069705;28;20211;-67
2023/06/18 02:14:42;;;;;;;0.37;0.37;;;;;;;18.26;100.00;98887.63;5070120;28;20200;-67
2023/06/18 02:17:09;;;;;;;0.67;0.67;;;;;;;18.29;100.00;98887.41;5069363;28;20228;-67
2023/06/18 02:19:36;;;;;;;0.70;0.70;;;;;;;18.29;100.00;98892.59;5069686;28;20251;-68
2023/06/18 02:22:03;;;;;;;0.60;0.60;;;;;;;18.20;100.00;98882.84;5069683;28;20195;-67
2023/06/18 02:24:32;;;;;;;0.50;0.50;;;;;;;18.25;100.00;98885.97;5069842;28;20196;-67
2023/06/18 02:26:59;;;;;;;0.73;0.67;;;;;;;18.08;100.00;98873.34;5069200;28;20212;-67
2023/06/18 02:29:26;;;;;;;0.40;0.40;;;;;;;18.26;100.00;98898.00;5069493;28;20216;-67
2023/06/18 02:31:53;;;;;;;0.50;0.50;;;;;;;18.26;100.00;98898.00;5069526;28;20680;-67
2023/06/18 02:34:19;;;;;;;0.33;0.33;;;;;;;18.24;100.00;98905.06;5069753;28;20197;-67
2023/06/18 02:36:47;;;;;;;0.40;0.40;;;;;;;18.24;100.00;98905.91;5069377;28;20643;-67
2023/06/18 02:39:14;;;;;;;0.50;0.50;;;;;;;18.29;100.00;98915.94;5069382;28;20196;-67
2023/06/18 02:41:43;;;;;;;0.47;0.47;;;;;;;18.26;100.00;98910.97;5069698;28;20196;-67
2023/06/18 02:44:09;;;;;;;0.50;0.50;;;;;;;18.36;100.00;98914.59;5068901;28;20685;-67
2023/06/18 02:46:36;;;;;;;0.50;0.50;;;;;;;18.32;100.00;98906.19;5069951;28;20691;-67
2023/06/18 02:49:03;;;;;;;0.60;0.60;;;;;;;18.40;100.00;98925.59;5069785;28;20678;-67
2023/06/18 02:51:30;;;;;;;0.47;0.47;;;;;;;18.41;100.00;98922.91;5069193;28;20197;-67
2023/06/18 02:53:57;;;;;;;0.60;0.60;;;;;;;18.31;100.00;98906.31;5069637;28;20197;-67
2023/06/18 02:56:23;;;;;;;0.80;0.80;;;;;;;18.45;100.00;98928.72;5070415;28;20222;-67
2023/06/18 02:58:55;;;;;;;0.60;0.60;;;;;;;18.44;100.00;98933.06;5073969;28;20223;-67
2023/06/18 03:01:23;;;;;;;0.50;0.50;;;;;;;18.41;100.00;98928.09;5073345;28;20204;-67
2023/06/18 03:03:50;;;;;;;0.50;0.50;;;;;;;18.46;100.00;98938.13;5073548;28;20553;-67
2023/06/18 03:06:17;;;;;;;0.70;0.70;;;;;;;18.46;100.00;98928.59;5072967;28;20233;-67
2023/06/18 03:08:44;;;;;;;0.83;0.83;;;;;;;18.48;100.00;98923.31;5073424;28;20196;-67
2023/06/18 03:11:11;;;;;;;0.67;0.67;;;;;;;18.51;100.00;98934.34;5073437;28;20204;-67
2023/06/18 03:13:37;;;;;;;0.60;0.60;;;;;;;18.54;100.00;98936.72;5072240;28;20201;-67
2023/06/18 03:16:06;;;;;;;0.60;0.60;;;;;;;18.55;100.00;98940.94;5072712;28;20215;-67
2023/06/18 03:18:33;;;;;;;0.50;0.50;;;;;;;18.54;100.00;98941.91;5072120;28;20221;-67
2023/06/18 03:21:00;;;;;;;0.50;0.50;;;;;;;18.52;100.00;98946.34;5073048;28;20287;-67
2023/06/18 03:23:27;;;;;;;0.60;0.60;;;;;;;18.48;100.00;98944.88;5072929;28;20687;-67
2023/06/18 03:25:54;;;;;;;0.50;0.50;;;;;;;18.56;100.00;98953.00;5073210;28;20197;-67
2023/06/18 03:28:22;;;;;;;0.50;0.50;;;;;;;18.61;100.00;98952.69;5072432;28;20638;-67
2023/06/18 03:30:48;;;;;;;0.50;0.50;;;;;;;18.59;100.00;98962.34;5072053;28;20254;-67
2023/06/18 03:33:17;;;;;;;0.50;0.50;;;;;;;18.57;100.00;98959.88;5072585;28;20223;-67
2023/06/18 03:35:46;;;;;;;0.60;0.60;;;;;;;18.60;100.00;98964.00;5072464;28;20564;-67
2023/06/18 03:38:13;;;;;;;0.60;0.60;;;;;;;18.63;100.00;98964.63;5072438;28;20587;-67
2023/06/18 03:40:40;;;;;;;0.50;0.50;;;;;;;18.62;100.00;98968.16;5072396;28;20205;-67
2023/06/18 03:43:08;;;;;;;0.90;0.90;;;;;;;18.51;100.00;98955.09;5072518;28;20240;-67
2023/06/18 03:45:35;;;;;;;1.40;0.97;;;;;;;18.58;100.00;98960.69;5072620;28;20199;-67
2023/06/18 03:48:01;;;;;;;0.50;0.50;;;;;;;18.55;100.00;98953.09;5072120;28;20200;-68
2023/06/18 03:50:29;;;;;;;0.60;0.60;;;;;;;18.59;100.00;98963.16;5072139;28;20612;-68
2023/06/18 03:52:56;;;;;;;0.70;0.70;;;;;;;18.62;100.00;98968.16;5072456;28;20207;-68
2023/06/18 03:55:23;;;;;;;0.80;0.80;;;;;;;18.62;100.00;98968.16;5072343;28;20206;-68
2023/06/18 03:57:50;;;;;;;0.50;0.50;;;;;;;18.66;100.00;98976.56;5071637;28;20233;-68
2023/06/18 04:00:17;;;;;;;0.80;0.80;;;;;;;18.66;100.00;98974.78;5072234;28;20621;-68
2023/06/18 04:02:43;;;;;;;0.63;0.63;;;;;;;18.65;100.00;98970.53;5072684;28;20568;-68
2023/06/18 04:05:10;;;;;;;0.50;0.50;;;;;;;18.68;100.00;98977.25;5072228;28;20200;-68
2023/06/18 04:07:39;;;;;;;0.50;0.50;;;;;;;18.70;100.00;98981.44;5071325;28;20249;-67
2023/06/18 04:10:06;;;;;;;0.50;0.50;;;;;;;18.72;100.00;98979.56;5071944;28;20193;-68
2023/06/18 04:12:33;;;;;;;0.77;0.77;;;;;;;18.75;100.00;98989.72;5072524;28;20198;-67
2023/06/18 04:15:00;;;;;;;0.57;0.57;;;;;;;18.81;100.00;98994.47;5071985;28;20299;-67
2023/06/18 04:17:27;;;;;;;0.43;0.43;;;;;;;18.83;100.00;98992.63;5071854;28;20209;-68
2023/06/18 04:19:54;;;;;;;0.60;0.60;;;;;;;18.86;100.00;98997.59;5070563;28;20196;-68
2023/06/18 04:22:20;;;;;;;0.83;0.83;;;;;;;18.89;100.00;98999.16;5071465;28;20205;-68
2023/06/18 04:24:48;;;;;;;0.43;0.43;;;;;;;18.86;100.00;98997.59;5071755;28;20201;-68
2023/06/18 04:27:15;;;;;;;0.50;0.50;;;;;;;19.00;100.00;99003.59;5071236;28;20549;-67
2023/06/18 04:29:42;;;;;;;0.50;0.50;;;;;;;19.05;100.00;99001.50;5072007;28;20226;-68
2023/06/18 04:32:09;;;;;;;0.47;0.47;;;;;;;19.04;100.00;99003.25;5071381;28;20227;-67
2023/06/18 04:34:36;;;;;;;0.87;0.87;;;;;;;19.08;100.00;99001.28;5071692;28;20599;-68
2023/06/18 04:37:02;;;;;;;0.50;0.50;;;;;;;19.14;100.00;99006.03;5071169;28;20671;-68
2023/06/18 04:39:29;;;;;;;0.70;0.70;;;;;;;19.15;100.00;99007.69;5071509;28;20209;-68
2023/06/18 04:41:57;;;;;;;0.83;0.83;;;;;;;19.01;100.00;98997.44;5071649;28;20209;-68
2023/06/18 04:44:24;;;;;;;0.37;0.37;;;;;;;19.10;100.00;99010.59;5070537;28;20650;-67
2023/06/18 04:46:51;;;;;;;0.50;0.50;;;;;;;19.14;100.00;99008.63;5070525;28;20218;-68
2023/06/18 04:49:18;;;;;;;0.40;0.40;;;;;;;19.25;100.00;99022.53;5070720;28;20205;-67
2023/06/18 04:51:44;;;;;;;0.60;0.60;;;;;;;19.24;100.00;99030.44;5070113;28;20634;-68
2023/06/18 04:54:12;;;;;;;0.80;0.80;;;;;;;19.25;100.00;99027.72;5069848;28;20617;-68
2023/06/18 04:56:39;;;;;;;0.80;0.80;;;;;;;19.31;100.00;99026.44;5070026;28;20231;-68
2023/06/18 04:59:07;;;;;;;0.60;0.60;;;;;;;19.37;100.00;99026.84;5070533;28;20689;-68
2023/06/18 05:01:34;;;;;;;1.03;1.03;;;;;;;19.31;100.00;99021.25;5071279;28;20207;-68
2023/06/18 05:04:01;;;;;;;0.87;0.87;;;;;;;19.38;100.00;99040.69;5071073;28;20198;-68
2023/06/18 05:06:27;;;;;;;0.40;0.40;;;;;;;19.43;100.00;99043.78;5070276;28;20213;-67
2023/06/18 05:08:54;;;;;;;0.40;0.40;;;;;;;19.50;100.00;99049.38;5071081;28;20196;-68
2023/06/18 05:11:21;;;;;;;0.40;0.40;;;;;;;19.57;100.00;99048.00;5070278;28;20211;-68
2023/06/18 05:13:48;;;;;;;0.60;0.60;;;;;;;19.60;100.00;99053.81;5070949;28;20210;-67
2023/06/18 05:16:16;;;;;;;0.63;0.63;;;;;;;19.63;100.00;99053.59;5070381;28;20682;-68
2023/06/18 05:18:42;;;;;;;0.47;0.47;;;;;;;19.65;100.00;99062.09;5070766;28;20225;-68
2023/06/18 05:21:09;;;;;;;0.63;0.63;;;;;;;19.44;100.00;99021.22;5069645;28;20204;-68
2023/06/18 05:23:36;;;;;;;0.50;0.50;;;;;;;19.62;100.00;99059.72;5070579;28;21546;-68
2023/06/18 05:26:03;;;;;;;0.60;0.60;;;;;;;19.66;100.00;99068.97;5067593;28;20203;-68
2023/06/18 05:28:30;;;;;;;0.40;0.40;;;;;;;19.70;100.00;99066.97;5069713;28;20233;-68
2023/06/18 05:30:56;;;;;;;0.60;0.60;;;;;;;19.71;100.00;99064.25;5069617;28;20743;-66
2023/06/18 05:33:24;;;;;;;0.40;0.40;;;;;;;19.71;100.00;99069.44;5067698;28;20208;-66
2023/06/18 05:35:51;;;;;;;0.40;0.40;;;;;;;19.73;100.00;99072.78;5070227;28;20210;-66
2023/06/18 05:38:18;;;;;;;0.60;0.60;;;;;;;19.74;100.00;99077.03;5070181;28;20251;-66
2023/06/18 05:40:45;;;;;;;0.50;0.50;;;;;;;19.71;100.00;99079.84;5070339;28;20199;-66
2023/06/18 05:43:12;;;;;;;0.60;0.60;;;;;;;19.73;100.00;99082.38;5069964;28;20692;-66
2023/06/18 05:45:38;;;;;;;0.47;0.47;;;;;;;19.71;100.00;99085.06;5069822;28;20252;-67
2023/06/18 05:48:08;;;;;;;0.53;0.53;;;;;;;19.62;100.00;99069.28;5070339;28;20198;-69
2023/06/18 05:50:36;;;;;;;0.40;0.40;;;;;;;19.75;100.00;99086.50;5069914;28;20195;-66
2023/06/18 05:53:03;;;;;;;0.90;0.90;;;;;;;19.78;100.00;99086.28;5070219;28;20200;-67
2023/06/18 05:55:29;;;;;;;0.60;0.60;;;;;;;19.75;100.00;99073.50;5068708;28;20204;-68
2023/06/18 05:57:56;;;;;;;0.70;0.70;;;;;;;19.93;100.00;99090.34;5069101;28;20706;-69
2023/06/18 06:00:23;;;;;;;0.50;0.50;;;;;;;20.00;100.00;99092.53;5069388;28;20230;-68
2023/06/18 06:02:50;;;;;;;0.60;0.60;;;;;;;20.10;100.00;99086.50;5069609;28;20200;-67
2023/06/18 06:05:17;;;;;;;0.40;0.40;;;;;;;20.20;100.00;99091.88;5069984;28;20211;-68
2023/06/18 06:07:45;;;;;;;0.73;0.73;;;;;;;20.23;100.00;99096.84;5069878;28;20199;-68
2023/06/18 06:10:13;;;;;;;0.57;0.57;;;;;;;20.28;100.00;99099.97;5069979;28;20207;-68
2023/06/18 06:12:40;;;;;;;0.40;0.40;;;;;;;20.36;100.00;99100.22;5065604;28;20195;-69
2023/06/18 06:15:09;;;;;;;0.30;0.30;;;;;;;20.41;100.00;99101.56;5066819;28;20277;-67
2023/06/18 06:17:36;;;;;;;0.57;0.57;;;;;;;20.46;100.00;99097.75;5069134;28;20199;-68
2023/06/18 06:20:03;;;;;;;0.53;0.53;;;;;;;20.55;100.00;99102.31;5069054;28;20286;-67
2023/06/18 06:22:30;;;;;;;1.03;1.03;;;;;;;20.60;100.00;99105.38;5069985;28;20231;-68
2023/06/18 06:24:58;;;;;;;0.40;0.40;;;;;;;20.58;100.00;99102.88;5069050;28;20576;-67
2023/06/18 06:27:25;;;;;;;0.70;0.70;;;;;;;20.54;100.00;99109.28;5069845;28;20267;-67
2023/06/18 06:29:52;;;;;;;0.50;0.50;;;;;;;20.53;100.00;99114.59;5069964;28;20198;-67
2023/06/18 06:32:19;;;;;;;0.33;0.33;;;;;;;20.53;100.00;99110.22;5068404;28;20658;-67
2023/06/18 06:34:46;;;;;;;0.60;0.60;;;;;;;20.51;100.00;99095.66;5069930;28;20202;-68
2023/06/18 06:37:12;;;;;;;0.57;0.57;;;;;;;20.64;100.00;99110.25;5069095;28;20221;-68
2023/06/18 06:39:39;;;;;;;0.30;0.30;;;;;;;20.68;100.00;99109.03;5069784;28;20226;-68
2023/06/18 06:42:09;;;;;;;0.40;0.40;;;;;;;20.79;100.00;99116.06;5069512;28;20203;-67
2023/06/18 06:44:35;;;;;;;0.47;0.47;;;;;;;20.81;100.00;99104.56;5069748;28;20749;-68
2023/06/18 06:47:02;;;;;;;0.70;0.70;;;;;;;20.82;100.00;99108.84;5069492;28;20202;-68
2023/06/18 06:49:29;;;;;;;0.30;0.30;;;;;;;20.86;100.00;99118.09;5069789;28;20580;-68
2023/06/18 06:51:56;;;;;;;0.60;0.60;;;;;;;20.87;100.00;99109.28;5069706;28;20286;-68
2023/06/18 06:54:23;;;;;;;0.60;0.60;;;;;;;20.99;100.00;99122.34;5068759;28;20203;-68
2023/06/18 06:56:50;;;;;;;1.27;0.70;;;;;;;20.97;100.00;99119.84;5069613;28;20694;-68
2023/06/18 06:59:18;;;;;;;0.40;0.40;;;;;;;20.99;100.00;99122.34;5069278;28;21041;-72
2023/06/18 07:01:48;;;;;;;0.40;0.40;;;;;;;21.04;100.00;99125.41;5069707;28;20192;-72
2023/06/18 07:04:15;;;;;;;0.50;0.50;;;;;;;21.07;100.00;99119.97;5067104;28;20203;-68
2023/06/18 07:06:41;;;;;;;0.40;0.40;;;;;;;21.10;100.00;99122.38;5066049;28;20196;-68
2023/06/18 07:09:08;;;;;;;0.40;0.40;;;;;;;21.10;100.00;99117.19;5067966;28;20200;-68
2023/06/18 07:11:37;;;;;;;0.50;0.50;;;;;;;21.18;100.00;99130.44;5064346;28;20568;-68
2023/06/18 07:14:04;;;;;;;0.70;0.70;;;;;;;21.17;100.00;99126.16;5063805;28;20253;-69
2023/06/18 07:16:32;;;;;;;0.40;0.40;;;;;;;21.22;100.00;99139.69;5063525;28;20930;-69
2023/06/18 07:19:01;;;;;;;0.60;0.60;;;;;;;21.26;100.00;99138.50;5063570;28;20220;-69
2023/06/18 07:21:27;;;;;;;0.90;0.90;;;;;;;21.37;100.00;99138.47;5067123;28;20203;-69
2023/06/18 07:23:54;;;;;;;1.20;1.20;;;;;;;21.40;100.00;99127.78;5067697;28;20207;-69
2023/06/18 07:26:21;;;;;;;2.20;2.10;;;;;;;21.55;100.00;99142.22;5065326;28;20849;-69
2023/06/18 07:28:48;;;;;;;4.20;3.67;;;;;;;21.58;100.00;99147.22;5067991;28;20580;-66
2023/06/18 07:31:14;;;;;;;1.10;1.10;;;;;;;21.67;100.00;99154.31;5066986;28;20679;-67
2023/06/18 07:33:43;;;;;;;1.63;1.60;;;;;;;21.75;100.00;99149.31;5067474;28;20212;-67
2023/06/18 07:36:09;;;;;;;3.63;1.50;;;;;;;21.87;100.00;99150.91;5068408;28;20356;-67
2023/06/18 07:38:36;;;;;;;1.57;1.47;;;;;;;21.90;100.00;99153.34;5066398;28;20705;-67
2023/06/18 07:41:03;;;;;;;0.97;0.97;;;;;;;21.95;100.00;99151.19;5067905;28;20672;-68
2023/06/18 07:43:30;;;;;;;1.23;1.23;;;;;;;21.96;100.00;99159.84;5067261;28;20718;-68
2023/06/18 07:45:57;;;;;;;0.77;0.77;;;;;;;21.91;100.00;99160.19;5070427;28;20583;-67
2023/06/18 07:48:23;;;;;;;0.90;0.90;;;;;;;22.00;100.00;99160.44;5070232;28;20196;-68
2023/06/18 07:50:52;;;;;;;0.37;0.37;;;;;;;22.01;100.00;99164.69;5069131;28;20265;-67
2023/06/18 07:53:18;;;;;;;0.63;0.63;;;;;;;22.05;100.00;99160.88;5070143;28;20203;-68
2023/06/18 07:55:45;;;;;;;0.50;0.50;;;;;;;22.00;100.00;99150.00;5070541;28;20196;-67
2023/06/18 07:58:12;;;;;;;0.93;0.90;;;;;;;22.07;100.00;99165.00;5071135;28;20291;-67
2023/06/18 08:00:39;;;;;;;1.00;1.00;;;;;;;22.06;100.00;99167.75;5070358;28;20344;-67
2023/06/18 08:03:06;;;;;;;0.63;0.63;;;;;;;22.08;100.00;99165.84;5070492;28;20219;-67
2023/06/18 08:05:33;;;;;;;0.60;0.60;;;;;;;22.15;100.00;99167.84;5069734;28;20203;-68
2023/06/18 08:08:01;;;;;;;0.40;0.40;;;;;;;22.24;100.00;99171.47;5069188;28;20215;-67
2023/06/18 08:10:28;;;;;;;0.50;0.50;;;;;;;22.29;100.00;99175.41;5067519;28;20203;-68
2023/06/18 08:12:55;;;;;;;0.60;0.60;;;;;;;22.32;100.00;99171.69;5070432;28;20200;-68
2023/06/18 08:15:23;;;;;;;0.40;0.40;;;;;;;22.47;100.00;99167.81;5067589;28;20212;-68
2023/06/18 08:17:50;;;;;;;1.03;0.90;;;;;;;22.69;100.00;99183.41;5069398;28;20207;-68
2023/06/18 08:20:17;;;;;;;0.40;0.40;;;;;;;22.72;100.00;99177.91;5065361;28;20684;-67
2023/06/18 08:22:43;;;;;;;0.60;0.60;;;;;;;22.81;100.00;99171.13;5069826;28;20687;-68
2023/06/18 08:25:12;;;;;;;0.60;0.60;;;;;;;22.99;100.00;99183.44;5068611;28;20682;-67
2023/06/18 08:27:38;;;;;;;0.43;0.43;;;;;;;23.08;100.00;99174.00;5070462;28;20231;-68
2023/06/18 08:30:07;;;;;;;0.33;0.33;;;;;;;23.08;100.00;99181.84;5070589;28;20261;-68
2023/06/18 08:32:34;;;;;;;0.43;0.43;;;;;;;23.10;100.00;99173.88;5069651;28;20200;-68
2023/06/18 08:35:01;;;;;;;0.93;0.93;;;;;;;23.09;100.00;99174.81;5069660;28;20200;-68
2023/06/18 08:37:27;;;;;;;0.50;0.50;;;;;;;23.16;100.00;99176.78;5065639;28;20303;-68
2023/06/18 08:39:54;;;;;;;1.03;1.03;;;;;;;23.14;100.00;99172.63;5070075;28;20216;-68
2023/06/18 08:42:22;;;;;;;0.63;0.63;;;;;;;23.16;100.00;99186.41;5069643;28;20211;-67
2023/06/18 08:44:50;;;;;;;0.40;0.40;;;;;;;23.19;100.00;99188.78;5070483;28;20214;-67
2023/06/18 08:47:17;;;;;;;0.60;0.60;;;;;;;23.24;100.00;99189.19;5070373;28;20880;-68
2023/06/18 08:49:50;;;;;;;0.50;0.50;;;;;;;23.21;100.00;99189.47;5069433;28;20196;-67
2023/06/18 08:52:19;;;;;;;0.90;0.90;;;;;;;23.25;100.00;99185.63;5070359;28;20636;-68
2023/06/18 08:54:50;;;;;;;0.60;0.60;;;;;;;23.15;100.00;99169.06;5069745;28;20200;-68
2023/06/18 08:57:27;;;;;;;0.50;0.50;;;;;;;23.32;100.00;99194.63;5069942;28;20671;-67
2023/06/18 08:59:55;;;;;;;0.67;0.67;;;;;;;23.38;100.00;99191.47;5068969;28;20247;-67
2023/06/18 09:02:24;;;;;;;0.70;0.70;;;;;;;23.43;100.00;99194.53;5069092;28;20236;-67
2023/06/18 09:04:52;;;;;;;0.87;0.87;;;;;;;23.37;100.00;99192.41;5069337;28;20305;-67
2023/06/18 09:07:20;;;;;;;0.60;0.60;;;;;;;23.28;100.00;99185.38;5069518;28;20218;-67
2023/06/18 09:09:47;;;;;;;0.70;0.70;;;;;;;23.32;100.00;99197.22;5069186;28;20211;-68
2023/06/18 09:12:14;;;;;;;0.30;0.30;;;;;;;23.28;100.00;99201.91;5068377;28;20208;-68
2023/06/18 09:14:42;;;;;;;0.20;0.20;;;;;;;23.33;100.00;99201.47;5069515;28;20208;-67
2023/06/18 09:17:09;;;;;;;0.70;0.70;;;;;;;23.40;100.00;99203.47;5067664;28;20227;-68
2023/06/18 09:19:36;;;;;;;0.50;0.50;;;;;;;23.36;100.00;99188.97;5069571;28;20561;-67
2023/06/18 09:22:12;;;;;;;0.53;0.53;;;;;;;23.55;100.00;99208.38;5069808;28;20211;-68
2023/06/18 09:24:39;;;;;;;0.40;0.40;;;;;;;23.60;100.00;99212.25;5067984;28;20200;-67
2023/06/18 09:27:07;;;;;;;0.33;0.33;;;;;;;23.68;100.00;99208.97;5070180;28;20208;-68
2023/06/18 09:29:35;;;;;;;0.20;0.20;;;;;;;23.70;100.00;99207.03;5070576;28;20258;-68
2023/06/18 09:32:08;;;;;;;0.40;0.40;;;;;;;23.69;100.00;99214.06;5068786;28;20223;-68
2023/06/18 09:34:36;;;;;;;0.47;0.47;;;;;;;23.61;100.00;99208.66;5068729;28;20211;-68
2023/06/18 09:37:04;;;;;;;0.30;0.30;;;;;;;23.62;100.00;99210.31;5069440;28;20202;-67
2023/06/18 09:39:32;;;;;;;0.60;0.60;;;;;;;23.73;100.00;99206.75;5068590;28;20223;-68
2023/06/18 09:42:06;;;;;;;0.40;0.40;;;;;;;23.81;100.00;99215.59;5069676;28;20196;-67
2023/06/18 09:44:33;;;;;;;0.47;0.47;;;;;;;23.83;99.04;99208.44;5068714;28;20196;-67
2023/06/18 09:47:02;;;;;;;0.50;0.50;;;;;;;23.70;99.76;99175.63;5069296;28;20199;-68
2023/06/18 09:49:31;;;;;;;0.60;0.60;;;;;;;23.93;98.85;99204.06;5069236;28;20229;-68
2023/06/18 09:51:57;;;;;;;0.33;0.33;;;;;;;23.89;98.67;99197.44;5068879;28;20203;-67
2023/06/18 09:54:37;;;;;;;0.80;0.80;;;;;;;23.87;98.54;99209.84;5069227;28;20199;-68
2023/06/18 09:57:06;;;;;;;0.30;0.30;;;;;;;23.90;99.36;99209.56;5066315;28;20203;-68
2023/06/18 09:59:33;;;;;;;0.90;0.90;;;;;;;23.88;97.44;99205.41;5068351;28;20216;-68
2023/06/18 10:01:59;;;;;;;0.40;0.40;;;;;;;23.84;98.58;99209.28;5070033;28;20687;-68
2023/06/18 10:04:26;;;;;;;0.73;0.50;;;;;;;23.80;99.07;99211.34;5069033;28;20699;-68
2023/06/18 10:06:59;;;;;;;0.50;0.50;;;;;;;23.75;100.00;99210.91;5066616;28;20210;-68
2023/06/18 10:09:31;;;;;;;0.30;0.30;;;;;;;23.81;100.00;99205.13;5069272;28;20200;-68
2023/06/18 10:11:59;;;;;;;0.73;0.73;;;;;;;23.82;99.87;99203.34;5069942;28;20630;-67
2023/06/18 10:14:29;;;;;;;0.50;0.50;;;;;;;23.93;100.00;99209.31;5069759;28;20188;-68
2023/06/18 10:17:00;;;;;;;0.60;0.60;;;;;;;23.94;97.59;99199.66;5069990;28;20199;-68
2023/06/18 10:19:31;;;;;;;0.40;0.40;;;;;;;24.07;98.38;99199.41;5069670;28;20577;-67
2023/06/18 10:22:03;;;;;;;0.60;0.60;;;;;;;24.12;98.59;99189.38;5069473;28;20196;-68
2023/06/18 10:24:34;;;;;;;0.50;0.50;;;;;;;24.17;99.73;99192.41;5069586;28;20189;-68
2023/06/18 10:27:01;;;;;;;0.40;0.40;;;;;;;24.21;99.52;99199.00;5069765;28;20192;-68
2023/06/18 10:29:29;;;;;;;0.60;0.60;;;;;;;24.14;99.09;99200.50;5069690;28;20220;-68
2023/06/18 10:31:56;;;;;;;0.50;0.50;;;;;;;24.10;98.70;99196.50;5069686;28;20231;-68
2023/06/18 10:34:25;;;;;;;0.67;0.67;;;;;;;24.12;100.00;99198.06;5068192;28;20220;-67
2023/06/18 10:36:54;;;;;;;0.47;0.47;;;;;;;24.11;98.80;99190.28;5068295;28;20214;-67
2023/06/18 10:39:23;;;;;;;0.30;0.30;;;;;;;24.08;100.00;99187.94;5067148;28;20294;-68
2023/06/18 10:41:52;;;;;;;0.30;0.30;;;;;;;24.06;98.85;99188.09;5067895;28;20199;-68
2023/06/18 10:44:32;;;;;;;0.37;0.37;;;;;;;24.08;100.00;99186.16;5069355;28;20204;-68
2023/06/18 10:47:17;;;;;;;0.40;0.40;;;;;;;23.90;99.75;99167.69;5068588;28;20192;-68
2023/06/18 10:50:15;;;;;;;0.30;0.30;;;;;;;24.06;100.00;99180.22;5069364;28;20215;-68
2023/06/18 10:52:43;;;;;;;0.37;0.37;;;;;;;24.07;99.29;99178.44;5068830;28;20200;-67
2023/06/18 10:55:14;;;;;;;0.30;0.30;;;;;;;23.94;100.00;99169.03;5069298;28;20203;-69
2023/06/18 10:57:42;;;;;;;0.30;0.30;;;;;;;23.93;100.00;99180.50;5070015;28;20575;-69
2023/06/18 11:00:18;;;;;;;0.50;0.50;;;;;;;23.97;100.00;99184.47;5069636;28;20216;-69
2023/06/18 11:02:46;;;;;;;0.63;0.63;;;;;;;23.96;100.00;99164.50;5068265;28;20195;-69
2023/06/18 11:05:17;;;;;;;0.57;0.57;;;;;;;24.08;99.51;99159.13;5068996;28;20564;-69
2023/06/18 11:07:45;;;;;;;0.37;0.37;;;;;;;24.14;99.57;99166.47;5070032;28;20200;-68
2023/06/18 11:10:13;;;;;;;0.30;0.30;;;;;;;24.26;99.58;99168.00;5069592;28;20686;-68
2023/06/18 11:12:44;;;;;;;0.50;0.50;;;;;;;24.31;99.82;99165.78;5068429;28;20250;-68
2023/06/18 11:15:16;;;;;;;0.23;0.23;;;;;;;24.35;99.88;99154.06;5070116;28;20660;-67
2023/06/18 11:17:44;;;;;;;0.60;0.60;;;;;;;24.31;97.95;99160.56;5069493;28;20196;-67
2023/06/18 11:20:12;;;;;;;0.50;0.50;;;;;;;24.29;99.53;99146.78;5073311;28;20211;-66
2023/06/18 11:22:42;;;;;;;0.60;0.60;;;;;;;24.29;99.47;99154.63;5073331;28;20251;-69
2023/06/18 11:25:12;;;;;;;0.30;0.30;;;;;;;24.17;99.16;99124.31;5073041;28;20633;-67
2023/06/18 11:27:42;;;;;;;0.30;0.30;;;;;;;24.34;100.00;99129.66;5071773;28;20231;-67
2023/06/18 11:30:10;;;;;;;0.40;0.40;;;;;;;24.49;96.13;99143.16;5071103;28;20679;-67